Ana Sayfa
METAR-TAF:

METAR-TAF

Havaalanları :

Hastings Municipal Airport

Hastings, Nebraska, Amerika Birleşik Devletleri

Enlem: 40-36-02N, Boylam: 098-25-33W, yükseklik: 595 m

Güncel hava durumu gözlemi

Rapor saat 11:53 UTC de 37 dakika önce yapıldı.
Rüzgar güneydan 11 kt
Sıcaklık 21°C
Nem 88%
Basınç 1005 hPa
Görüş mesafesi: 16.1 km
Açık gökyüzü

METAR: KHSI 161153Z AUTO 17011KT 10SM CLR 21/19 A2969 RMK AO2 SLP035 70001 T02110189 10222 20206 55002

Saat: 07:30 (12:30 UTC)


TAF: eksik

4.000'den fazla havaalanı için hava durumu gözlemleri ve tahminleri (METAR ve TAF raporları).

Kullanılabilir istasyonlar harita üzerinde sarı ve kırmızı noktalarla gösterilir.

İstasyonun adını görmek için fareyi noktanın üzerinde gezdirin.

Sonrasında hava gözlem ve tahminlerini görmek için tıklayın.

Haritayı değiştirmek için: yaklaştırmak için siyah artı işaretli yeşil düğmeye ve uzaklaştırmak için de eksi işaretli düğmeye hızla tıklayın; bitişik haritalar için yeşil okları kullanın.


METAR-TAF: